Time,TemperatureF,DewpointF,PressureIn,WindDirection,WindDirectionDegrees,WindSpeedMPH,WindSpeedGustMPH,Humidity,HourlyPrecipIn,Conditions,Clouds,dailyrainin,SoftwareType,DateUTC
2013-09-03 00:01:00,63.1,54.3,29.80,SSW,202,3.5,4.2,73,0.00,SCT,,0.00,WeatherDisplay:10.37,2013-09-03 04:01:00,
2013-09-03 00:02:00,63.1,54.3,29.80,WSW,248,3.2,4.6,73,0.00,BKN,,0.00,WeatherDisplay:10.37,2013-09-03 04:02:00,
2013-09-03 00:05:00,63.1,54.3,29.80,West,270,2.8,3.7,73,0.00,BKN,,0.00,WeatherDisplay:10.37,2013-09-03 04:05:00,
2013-09-03 00:08:00,63.1,54.3,29.80,SW,225,2.4,3.5,73,0.00,BKN,,0.00,WeatherDisplay:10.37,2013-09-03 04:08:00,
2013-09-03 00:13:00,63.1,54.3,29.80,SW,225,2.0,2.3,73,0.00,BKN,,0.00,WeatherDisplay:10.37,2013-09-03 04:13:00,
2013-09-03 00:18:00,63.1,54.3,29.80,West,270,2.7,2.7,73,0.00,BKN,,0.00,WeatherDisplay:10.37,2013-09-03 04:18:00,
2013-09-03 00:23:00,63.1,54.3,29.80,WSW,248,1.8,2.7,73,0.00,BKN,,0.00,WeatherDisplay:10.37,2013-09-03 04:23:00,
2013-09-03 00:28:00,63.1,54.3,29.80,SW,225,2.4,3.5,73,0.00,BKN,,0.00,WeatherDisplay:10.37,2013-09-03 04:28:00,
2013-09-03 00:33:00,63.1,54.3,29.80,SSW,202,2.3,2.3,73,0.00,BKN,,0.00,WeatherDisplay:10.37,2013-09-03 04:33:00,
2013-09-03 00:38:00,63.1,54.3,29.80,WSW,248,2.2,2.7,73,0.00,BKN,,0.00,WeatherDisplay:10.37,2013-09-03 04:38:00,
2013-09-03 00:43:00,63.1,54.3,29.80,West,270,1.7,2.3,73,0.00,BKN,,0.00,WeatherDisplay:10.37,2013-09-03 04:43:00,
2013-09-03 00:48:00,63.3,54.9,29.80,WSW,248,2.5,3.2,74,0.00,BKN,,0.00,WeatherDisplay:10.37,2013-09-03 04:48:00,
2013-09-03 00:53:00,63.3,54.9,29.79,West,270,4.5,5.8,74,0.00,BKN,,0.00,WeatherDisplay:10.37,2013-09-03 04:53:00,
2013-09-03 00:58:00,63.5,54.7,29.79,NW,315,2.9,3.7,73,0.00,BKN,,0.00,WeatherDisplay:10.37,2013-09-03 04:58:00,
2013-09-03 01:03:00,63.5,54.7,29.79,WSW,248,3.2,3.7,73,0.00,BKN,,0.00,WeatherDisplay:10.37,2013-09-03 05:03:00,
2013-09-03 01:08:00,63.5,54.7,29.79,SW,225,2.0,2.3,73,0.00,BKN,,0.00,WeatherDisplay:10.37,2013-09-03 05:08:00,
2013-09-03 01:13:00,63.3,54.5,29.79,SW,225,1.9,2.3,73,0.00,BKN,,0.00,WeatherDisplay:10.37,2013-09-03 05:13:00,
2013-09-03 01:18:00,63.1,54.7,29.79,WSW,248,2.2,3.2,74,0.00,BKN,,0.00,WeatherDisplay:10.37,2013-09-03 05:18:00,
2013-09-03 01:23:00,63.1,54.7,29.79,West,270,2.0,2.7,74,0.00,BKN,,0.00,WeatherDisplay:10.37,2013-09-03 05:23:00,
2013-09-03 01:28:00,63.1,54.7,29.79,SW,225,2.5,3.5,74,0.00,BKN,,0.00,WeatherDisplay:10.37,2013-09-03 05:28:00,
2013-09-03 01:33:00,63.1,54.7,29.79,SW,225,2.6,2.6,74,0.00,BKN,,0.00,WeatherDisplay:10.37,2013-09-03 05:33:00,
2013-09-03 01:38:00,63.1,55.0,29.79,West,270,2.5,2.5,75,0.00,BKN,,0.00,WeatherDisplay:10.37,2013-09-03 05:38:00,
2013-09-03 01:43:00,63.1,55.0,29.79,West,270,3.1,4.7,75,0.00,BKN,,0.00,WeatherDisplay:10.37,2013-09-03 05:43:00,
2013-09-03 01:48:00,63.1,55.0,29.79,South,180,2.1,3.5,75,0.00,BKN,,0.00,WeatherDisplay:10.37,2013-09-03 05:48:00,
2013-09-03 01:53:00,63.1,55.0,29.79,West,270,4.3,4.7,75,0.00,BKN,,0.00,WeatherDisplay:10.37,2013-09-03 05:53:00,
2013-09-03 01:58:00,63.1,55.0,29.79,West,270,2.8,5.8,75,0.00,BKN,,0.00,WeatherDisplay:10.37,2013-09-03 05:58:00,
2013-09-03 02:03:00,63.1,55.0,29.78,West,270,4.6,5.8,75,0.00,OVC,,0.00,WeatherDisplay:10.37,2013-09-03 06:03:00,
2013-09-03 02:08:00,63.1,55.0,29.78,West,270,3.9,5.8,75,0.00,OVC,,0.00,WeatherDisplay:10.37,2013-09-03 06:08:00,
2013-09-03 02:13:00,63.1,55.0,29.78,West,270,4.6,5.8,75,0.00,OVC,,0.00,WeatherDisplay:10.37,2013-09-03 06:13:00,
2013-09-03 02:18:00,63.1,55.0,29.78,West,270,3.6,4.6,75,0.00,OVC,,0.00,WeatherDisplay:10.37,2013-09-03 06:18:00,
2013-09-03 02:23:00,63.1,55.0,29.78,SW,225,5.4,5.8,75,0.00,OVC,,0.00,WeatherDisplay:10.37,2013-09-03 06:23:00,
2013-09-03 02:28:00,63.1,55.4,29.79,WSW,248,5.3,5.8,76,0.00,OVC,,0.00,WeatherDisplay:10.37,2013-09-03 06:28:00,
2013-09-03 02:33:00,63.0,55.3,29.79,West,270,4.1,4.7,76,0.00,OVC,,0.00,WeatherDisplay:10.37,2013-09-03 06:33:00,
2013-09-03 02:38:00,62.8,55.5,29.78,West,270,4.5,5.8,77,0.00,OVC,,0.00,WeatherDisplay:10.37,2013-09-03 06:38:00,
2013-09-03 02:43:00,62.8,55.5,29.78,SW,225,4.6,5.8,77,0.00,OVC,,0.00,WeatherDisplay:10.37,2013-09-03 06:43:00,
2013-09-03 02:48:00,62.6,55.3,29.78,SW,225,6.2,8.1,77,0.00,OVC,,0.00,WeatherDisplay:10.37,2013-09-03 06:48:00,
2013-09-03 02:53:00,62.6,55.3,29.79,West,270,5.6,6.8,77,0.00,OVC,,0.00,WeatherDisplay:10.37,2013-09-03 06:53:00,
2013-09-03 02:58:00,62.4,55.1,29.79,West,270,2.8,4.7,77,0.00,OVC,,0.00,WeatherDisplay:10.37,2013-09-03 06:58:00,
2013-09-03 03:03:00,62.4,55.4,29.79,West,270,8.1,9.9,78,0.00,OVC,,0.00,WeatherDisplay:10.37,2013-09-03 07:03:00,
2013-09-03 03:08:00,62.2,55.3,29.79,South,180,7.1,9.2,78,0.00,OVC,,0.00,WeatherDisplay:10.37,2013-09-03 07:08:00,
2013-09-03 03:13:00,62.2,55.3,29.79,West,270,5.4,6.3,78,0.00,OVC,,0.00,WeatherDisplay:10.37,2013-09-03 07:13:00,
2013-09-03 03:18:00,62.1,55.2,29.79,West,270,5.3,6.8,78,0.00,OVC,,0.00,WeatherDisplay:10.37,2013-09-03 07:18:00,
2013-09-03 03:23:00,62.1,55.2,29.79,WSW,248,5.8,6.9,78,0.00,OVC,,0.00,WeatherDisplay:10.37,2013-09-03 07:23:00,
2013-09-03 03:28:00,62.1,55.2,29.79,West,270,2.7,3.5,78,0.00,OVC,,0.00,WeatherDisplay:10.37,2013-09-03 07:28:00,
2013-09-03 03:33:00,61.9,54.6,29.79,WSW,248,4.4,5.8,77,0.00,OVC,,0.00,WeatherDisplay:10.37,2013-09-03 07:33:00,
2013-09-03 03:38:00,61.9,54.6,29.79,West,270,4.0,5.3,77,0.00,OVC,,0.00,WeatherDisplay:10.37,2013-09-03 07:38:00,
2013-09-03 03:43:00,61.9,54.6,29.79,West,270,3.1,3.7,77,0.00,OVC,,0.00,WeatherDisplay:10.37,2013-09-03 07:43:00,
2013-09-03 03:48:00,61.9,54.6,29.79,WSW,248,5.6,6.3,77,0.00,OVC,,0.00,WeatherDisplay:10.37,2013-09-03 07:48:00,
2013-09-03 03:53:00,61.9,54.6,29.79,WNW,292,4.0,4.6,77,0.00,OVC,,0.00,WeatherDisplay:10.37,2013-09-03 07:53:00,
2013-09-03 03:58:00,61.9,54.6,29.79,West,270,5.8,5.8,77,0.00,OVC,,0.00,WeatherDisplay:10.37,2013-09-03 07:58:00,
2013-09-03 04:03:00,61.9,54.6,29.79,WSW,248,5.5,5.8,77,0.00,OVC,,0.00,WeatherDisplay:10.37,2013-09-03 08:03:00,
2013-09-03 04:08:00,61.9,54.6,29.79,WNW,292,5.3,5.8,77,0.00,OVC,,0.00,WeatherDisplay:10.37,2013-09-03 08:08:00,
2013-09-03 04:13:00,61.7,54.4,29.80,SW,225,4.5,5.8,77,0.00,OVC,,0.00,WeatherDisplay:10.37,2013-09-03 08:13:00,
2013-09-03 04:18:00,61.5,54.6,29.80,WSW,248,4.4,5.8,78,0.00,OVC,,0.00,WeatherDisplay:10.37,2013-09-03 08:18:00,
2013-09-03 04:23:00,61.5,54.6,29.80,West,270,5.3,8.1,78,0.00,OVC,,0.00,WeatherDisplay:10.37,2013-09-03 08:23:00,
2013-09-03 04:28:00,61.5,54.6,29.79,SW,225,3.8,5.8,78,0.00,OVC,,0.00,WeatherDisplay:10.37,2013-09-03 08:28:00,
2013-09-03 04:33:00,61.5,54.6,29.79,WSW,248,4.2,7.3,78,0.00,OVC,,0.00,WeatherDisplay:10.37,2013-09-03 08:33:00,
2013-09-03 04:38:00,61.3,54.7,29.80,WSW,248,5.5,8.1,79,0.00,OVC,,0.00,WeatherDisplay:10.37,2013-09-03 08:38:00,
2013-09-03 04:43:00,61.2,54.6,29.80,West,270,3.1,3.5,79,0.00,OVC,,0.00,WeatherDisplay:10.37,2013-09-03 08:43:00,
2013-09-03 04:48:00,61.0,54.4,29.80,WNW,292,4.6,5.8,79,0.00,OVC,,0.00,WeatherDisplay:10.37,2013-09-03 08:48:00,
2013-09-03 04:53:00,60.8,54.6,29.80,WNW,292,2.6,4.6,80,0.00,OVC,,0.00,WeatherDisplay:10.37,2013-09-03 08:53:00,
2013-09-03 04:58:00,60.8,54.6,29.80,SSW,202,3.8,5.8,80,0.00,OVC,,0.00,WeatherDisplay:10.37,2013-09-03 08:58:00,
2013-09-03 05:03:00,60.8,54.6,29.80,West,270,2.3,2.3,80,0.00,OVC,,0.00,WeatherDisplay:10.37,2013-09-03 09:03:00,
2013-09-03 05:08:00,60.6,54.7,29.80,West,270,2.2,3.5,81,0.00,OVC,,0.00,WeatherDisplay:10.37,2013-09-03 09:08:00,
2013-09-03 05:13:00,60.6,54.7,29.80,WSW,248,4.0,4.6,81,0.00,OVC,,0.00,WeatherDisplay:10.37,2013-09-03 09:13:00,
2013-09-03 05:18:00,60.6,54.7,29.80,WSW,248,3.8,4.6,81,0.00,OVC,,0.00,WeatherDisplay:10.37,2013-09-03 09:18:00,
2013-09-03 05:23:00,60.6,54.4,29.80,WNW,292,4.9,6.9,80,0.00,OVC,,0.00,WeatherDisplay:10.37,2013-09-03 09:23:00,
2013-09-03 05:28:00,60.6,54.0,29.81,WNW,292,6.4,6.9,79,0.00,OVC,,0.00,WeatherDisplay:10.37,2013-09-03 09:28:00,
2013-09-03 05:33:00,60.6,54.0,29.81,West,270,2.7,5.8,79,0.00,OVC,,0.00,WeatherDisplay:10.37,2013-09-03 09:33:00,
2013-09-03 05:38:00,60.6,54.0,29.81,SW,225,6.3,8.1,79,0.00,OVC,,0.00,WeatherDisplay:10.37,2013-09-03 09:38:00,
2013-09-03 05:43:00,60.6,54.0,29.81,SSW,202,4.3,8.1,79,0.00,OVC,,0.00,WeatherDisplay:10.37,2013-09-03 09:43:00,
2013-09-03 05:48:00,60.6,54.0,29.81,WNW,292,2.6,3.5,79,0.00,OVC,,0.00,WeatherDisplay:10.37,2013-09-03 09:48:00,
2013-09-03 05:53:00,60.4,53.9,29.81,SW,225,3.9,5.8,79,0.00,OVC,,0.00,WeatherDisplay:10.37,2013-09-03 09:53:00,
2013-09-03 05:58:00,60.4,54.2,29.81,WNW,292,2.7,3.7,80,0.00,OVC,,0.00,WeatherDisplay:10.37,2013-09-03 09:58:00,
2013-09-03 06:03:00,60.3,54.1,29.81,West,270,3.7,5.3,80,0.00,OVC,,0.00,WeatherDisplay:10.37,2013-09-03 10:03:00,
2013-09-03 06:08:00,60.3,54.1,29.81,West,270,1.5,3.5,80,0.00,OVC,,0.00,WeatherDisplay:10.37,2013-09-03 10:08:00,
2013-09-03 06:13:00,60.1,53.9,29.81,West,270,2.5,5.8,80,0.00,OVC,,0.00,WeatherDisplay:10.37,2013-09-03 10:13:00,
2013-09-03 06:18:00,59.9,53.7,29.80,SW,225,2.8,4.6,80,0.00,OVC,,0.00,WeatherDisplay:10.37,2013-09-03 10:18:00,
2013-09-03 06:23:00,59.9,53.7,29.80,West,270,4.2,4.7,80,0.00,OVC,,0.00,WeatherDisplay:10.37,2013-09-03 10:23:00,
2013-09-03 06:28:00,59.7,53.5,29.81,West,270,3.3,4.2,80,0.00,OVC,,0.00,WeatherDisplay:10.37,2013-09-03 10:28:00,
2013-09-03 06:33:00,59.4,53.2,29.81,West,270,3.9,5.3,80,0.00,OVC,,0.00,WeatherDisplay:10.37,2013-09-03 10:33:00,
2013-09-03 06:38:00,59.4,53.2,29.82,West,270,5.3,6.9,80,0.00,OVC,,0.00,WeatherDisplay:10.37,2013-09-03 10:38:00,
2013-09-03 06:43:00,59.4,53.2,29.82,SW,225,4.3,4.7,80,0.00,OVC,,0.00,WeatherDisplay:10.37,2013-09-03 10:43:00,
2013-09-03 06:48:00,59.4,53.2,29.82,SW,225,3.7,5.8,80,0.00,OVC,,0.00,WeatherDisplay:10.37,2013-09-03 10:48:00,
2013-09-03 06:53:00,59.4,53.2,29.81,WSW,248,2.7,3.5,80,0.00,OVC,,0.00,WeatherDisplay:10.37,2013-09-03 10:53:00,
2013-09-03 06:58:00,59.4,53.2,29.81,SSW,202,2.0,3.5,80,0.00,OVC,,0.00,WeatherDisplay:10.37,2013-09-03 10:58:00,
2013-09-03 07:03:00,59.4,53.2,29.82,WSW,248,2.8,3.5,80,0.00,BKN,,0.00,WeatherDisplay:10.37,2013-09-03 11:03:00,
2013-09-03 07:08:00,59.5,53.3,29.82,SW,225,5.1,5.8,80,0.00,BKN,,0.00,WeatherDisplay:10.37,2013-09-03 11:08:00,
2013-09-03 07:13:00,59.7,53.5,29.82,West,270,4.7,5.8,80,0.00,BKN,,0.00,WeatherDisplay:10.37,2013-09-03 11:13:00,
2013-09-03 07:18:00,59.7,53.5,29.83,SW,225,4.3,5.8,80,0.00,BKN,,0.00,WeatherDisplay:10.37,2013-09-03 11:18:00,
2013-09-03 07:23:00,59.7,53.2,29.83,SW,225,3.3,4.6,79,0.00,BKN,,0.00,WeatherDisplay:10.37,2013-09-03 11:23:00,
2013-09-03 07:28:00,59.9,53.4,29.83,West,270,3.6,4.6,79,0.00,BKN,,0.00,WeatherDisplay:10.37,2013-09-03 11:28:00,
2013-09-03 07:33:00,60.3,53.8,29.83,SW,225,3.7,5.8,79,0.00,BKN,,0.00,WeatherDisplay:10.37,2013-09-03 11:33:00,
2013-09-03 07:38:00,60.3,53.8,29.83,NW,315,2.7,4.2,79,0.00,BKN,,0.00,WeatherDisplay:10.37,2013-09-03 11:38:00,
2013-09-03 07:43:00,60.4,53.5,29.83,SSW,202,3.0,4.6,78,0.00,BKN,,0.00,WeatherDisplay:10.37,2013-09-03 11:43:00,
2013-09-03 07:48:00,60.6,53.7,29.83,West,270,3.9,8.1,78,0.00,BKN,,0.00,WeatherDisplay:10.37,2013-09-03 11:48:00,
2013-09-03 07:53:00,61.0,54.1,29.83,West,270,4.2,5.8,78,0.00,BKN,,0.00,WeatherDisplay:10.37,2013-09-03 11:53:00,
2013-09-03 07:58:00,61.2,53.9,29.83,WSW,248,4.2,4.2,77,0.00,BKN,,0.00,WeatherDisplay:10.37,2013-09-03 11:58:00,
2013-09-03 08:03:00,61.3,54.0,29.83,West,270,3.2,4.6,77,0.00,BKN,,0.00,WeatherDisplay:10.37,2013-09-03 12:03:00,
2013-09-03 08:08:00,61.3,54.0,29.83,West,270,5.3,10.4,77,0.00,BKN,,0.00,WeatherDisplay:10.37,2013-09-03 12:08:00,
2013-09-03 08:13:00,61.3,54.0,29.83,West,270,6.0,6.0,77,0.00,BKN,,0.00,WeatherDisplay:10.37,2013-09-03 12:13:00,
2013-09-03 08:18:00,61.2,53.6,29.84,West,270,6.1,9.2,76,0.00,BKN,,0.00,WeatherDisplay:10.37,2013-09-03 12:18:00,
2013-09-03 08:23:00,61.3,53.7,29.84,SW,225,3.2,4.6,76,0.00,BKN,,0.00,WeatherDisplay:10.37,2013-09-03 12:23:00,
2013-09-03 08:28:00,61.5,53.9,29.84,West,270,7.2,8.1,76,0.00,BKN,,0.00,WeatherDisplay:10.37,2013-09-03 12:28:00,
2013-09-03 08:33:00,61.5,53.9,29.84,WSW,248,5.3,8.1,76,0.00,BKN,,0.00,WeatherDisplay:10.37,2013-09-03 12:33:00,
2013-09-03 08:38:00,61.5,53.9,29.84,West,270,5.8,6.3,76,0.00,BKN,,0.00,WeatherDisplay:10.37,2013-09-03 12:38:00,
2013-09-03 08:43:00,61.5,53.9,29.84,SW,225,8.2,9.2,76,0.00,BKN,,0.00,WeatherDisplay:10.37,2013-09-03 12:43:00,
2013-09-03 08:48:00,61.5,54.2,29.84,West,270,5.4,6.9,77,0.00,BKN,,0.00,WeatherDisplay:10.37,2013-09-03 12:48:00,
2013-09-03 08:53:00,61.5,54.2,29.85,West,270,4.8,6.9,77,0.00,BKN,,0.00,WeatherDisplay:10.37,2013-09-03 12:53:00,
2013-09-03 08:58:00,61.9,54.6,29.85,West,270,3.1,6.9,77,0.00,BKN,,0.00,WeatherDisplay:10.37,2013-09-03 12:58:00,
2013-09-03 09:03:00,62.1,54.4,29.85,WSW,248,5.8,6.9,76,0.00,BKN,,0.00,WeatherDisplay:10.37,2013-09-03 13:03:00,
2013-09-03 09:08:00,62.1,54.4,29.85,WSW,248,5.8,5.8,76,0.00,BKN,,0.00,WeatherDisplay:10.37,2013-09-03 13:08:00,
2013-09-03 09:13:00,62.1,54.4,29.85,WSW,248,5.8,5.8,76,0.00,BKN,,0.00,WeatherDisplay:10.37,2013-09-03 13:13:00,
2013-09-03 09:18:00,62.1,54.4,29.85,WSW,248,5.8,5.8,76,0.00,BKN,,0.00,WeatherDisplay:10.37,2013-09-03 13:18:00,
2013-09-03 09:23:00,62.1,54.4,29.85,WSW,248,5.8,5.8,76,0.00,BKN,,0.00,WeatherDisplay:10.37,2013-09-03 13:23:00,
2013-09-03 09:28:00,62.1,54.4,29.85,WSW,248,5.8,5.8,76,0.00,BKN,,0.00,WeatherDisplay:10.37,2013-09-03 13:28:00,
2013-09-03 09:33:00,62.1,54.4,29.85,WSW,248,5.8,5.8,76,0.00,BKN,,0.00,WeatherDisplay:10.37,2013-09-03 13:33:00,
2013-09-03 09:38:00,62.1,54.4,29.85,WSW,248,5.8,5.8,76,0.00,BKN,,0.00,WeatherDisplay:10.37,2013-09-03 13:38:00,
2013-09-03 09:43:00,62.1,54.8,29.86,SW,225,8.4,8.4,77,0.00,BKN,,0.00,WeatherDisplay:10.37,2013-09-03 13:43:00,
2013-09-03 09:48:00,62.2,54.9,29.86,SSW,202,6.1,8.1,77,0.00,BKN,,0.00,WeatherDisplay:10.37,2013-09-03 13:48:00,
2013-09-03 09:53:00,62.2,54.5,29.85,West,270,7.1,10.4,76,0.00,BKN,,0.00,WeatherDisplay:10.37,2013-09-03 13:53:00,
2013-09-03 09:58:00,62.4,54.7,29.85,West,270,5.2,8.1,76,0.00,BKN,,0.00,WeatherDisplay:10.37,2013-09-03 13:58:00,
2013-09-03 10:03:00,62.4,54.7,29.86,West,270,8.0,8.8,76,0.00,BKN,,0.00,WeatherDisplay:10.37,2013-09-03 14:03:00,
2013-09-03 10:08:00,62.6,54.9,29.86,West,270,4.6,5.8,76,0.00,BKN,,0.00,WeatherDisplay:10.37,2013-09-03 14:08:00,
2013-09-03 10:13:00,62.6,54.9,29.86,WSW,248,6.4,6.9,76,0.00,BKN,,0.00,WeatherDisplay:10.37,2013-09-03 14:13:00,
2013-09-03 10:18:00,62.8,55.1,29.86,WSW,248,5.9,6.9,76,0.00,BKN,,0.00,WeatherDisplay:10.37,2013-09-03 14:18:00,
2013-09-03 10:23:00,63.5,55.4,29.86,West,270,6.3,6.9,75,0.00,BKN,,0.00,WeatherDisplay:10.37,2013-09-03 14:23:00,
2013-09-03 10:28:00,63.5,55.4,29.86,NW,315,5.9,6.9,75,0.00,BKN,,0.00,WeatherDisplay:10.37,2013-09-03 14:28:00,
2013-09-03 10:33:00,64.2,56.1,29.86,West,270,4.6,9.2,75,0.00,BKN,,0.00,WeatherDisplay:10.37,2013-09-03 14:33:00,
2013-09-03 10:38:00,64.2,55.7,29.86,West,270,7.0,8.1,74,0.00,BKN,,0.00,WeatherDisplay:10.37,2013-09-03 14:38:00,
2013-09-03 10:43:00,64.2,55.7,29.86,SW,225,6.8,6.9,74,0.00,BKN,,0.00,WeatherDisplay:10.37,2013-09-03 14:43:00,
2013-09-03 10:48:00,64.2,55.7,29.86,WSW,248,5.9,6.9,74,0.00,BKN,,0.00,WeatherDisplay:10.37,2013-09-03 14:48:00,
2013-09-03 10:53:00,64.4,55.9,29.87,South,180,7.2,11.5,74,0.00,BKN,,0.00,WeatherDisplay:10.37,2013-09-03 14:53:00,
2013-09-03 10:58:00,64.6,56.1,29.87,West,270,5.3,9.2,74,0.00,BKN,,0.00,WeatherDisplay:10.37,2013-09-03 14:58:00,
2013-09-03 11:03:00,65.1,56.2,29.86,SW,225,6.4,10.9,73,0.00,OVC,,0.00,WeatherDisplay:10.37,2013-09-03 15:03:00,
2013-09-03 11:08:00,64.9,56.0,29.86,South,180,6.3,9.2,73,0.00,OVC,,0.00,WeatherDisplay:10.37,2013-09-03 15:08:00,
2013-09-03 11:13:00,65.7,56.4,29.86,WNW,292,5.2,5.8,72,0.00,OVC,,0.00,WeatherDisplay:10.37,2013-09-03 15:13:00,
2013-09-03 11:18:00,66.0,56.3,29.86,SW,225,5.8,8.1,71,0.00,OVC,,0.00,WeatherDisplay:10.37,2013-09-03 15:18:00,
2013-09-03 11:23:00,65.5,55.8,29.86,West,270,7.7,10.4,71,0.00,OVC,,0.00,WeatherDisplay:10.37,2013-09-03 15:23:00,
2013-09-03 11:28:00,65.5,56.2,29.86,SSW,202,4.6,9.2,72,0.00,OVC,,0.00,WeatherDisplay:10.37,2013-09-03 15:28:00,
2013-09-03 11:33:00,66.0,56.3,29.86,SW,225,5.5,8.1,71,0.00,OVC,,0.00,WeatherDisplay:10.37,2013-09-03 15:33:00,
2013-09-03 11:38:00,65.1,55.5,29.86,SW,225,6.4,8.1,71,0.00,OVC,,0.00,WeatherDisplay:10.37,2013-09-03 15:38:00,
2013-09-03 11:43:00,64.9,55.3,29.86,West,270,7.8,8.1,71,0.00,OVC,,0.00,WeatherDisplay:10.37,2013-09-03 15:43:00,
2013-09-03 11:48:00,64.9,55.7,29.86,West,270,4.9,8.1,72,0.00,OVC,,0.00,WeatherDisplay:10.37,2013-09-03 15:48:00,
2013-09-03 11:53:00,64.8,55.6,29.86,West,270,7.3,10.4,72,0.00,OVC,,0.00,WeatherDisplay:10.37,2013-09-03 15:53:00,
2013-09-03 11:58:00,65.1,55.8,29.86,WSW,248,5.9,6.3,72,0.00,OVC,,0.00,WeatherDisplay:10.37,2013-09-03 15:58:00,
2013-09-03 12:03:00,65.3,56.0,29.86,West,270,9.0,10.9,72,0.00,OVC,,0.00,WeatherDisplay:10.37,2013-09-03 16:03:00,
2013-09-03 12:08:00,65.3,55.7,29.86,SW,225,7.0,11.5,71,0.00,OVC,,0.00,WeatherDisplay:10.37,2013-09-03 16:08:00,
2013-09-03 12:13:00,66.0,56.3,29.86,WSW,248,5.0,9.2,71,0.00,OVC,,0.00,WeatherDisplay:10.37,2013-09-03 16:13:00,
2013-09-03 12:18:00,66.0,56.7,29.86,WSW,248,7.6,11.5,72,0.00,OVC,,0.00,WeatherDisplay:10.37,2013-09-03 16:18:00,
2013-09-03 12:23:00,66.2,56.9,29.86,SSW,202,5.6,6.9,72,0.00,OVC,,0.00,WeatherDisplay:10.37,2013-09-03 16:23:00,
2013-09-03 12:28:00,65.8,56.1,29.86,WNW,292,8.8,11.5,71,0.00,OVC,,0.00,WeatherDisplay:10.37,2013-09-03 16:28:00,
2013-09-03 12:33:00,65.7,56.4,29.86,West,270,6.9,6.9,72,0.00,OVC,,0.00,WeatherDisplay:10.37,2013-09-03 16:33:00,
2013-09-03 12:38:00,65.7,56.8,29.86,SW,225,9.0,10.4,73,0.00,OVC,,0.00,WeatherDisplay:10.37,2013-09-03 16:38:00,
2013-09-03 12:43:00,66.0,57.1,29.86,WSW,248,10.6,12.7,73,0.00,OVC,,0.00,WeatherDisplay:10.37,2013-09-03 16:43:00,
2013-09-03 12:48:00,66.7,57.4,29.86,WSW,248,5.4,6.9,72,0.00,OVC,,0.00,WeatherDisplay:10.37,2013-09-03 16:48:00,
2013-09-03 12:53:00,66.6,56.5,29.86,West,270,6.6,11.5,70,0.00,OVC,,0.00,WeatherDisplay:10.37,2013-09-03 16:53:00,
2013-09-03 12:58:00,66.2,56.5,29.86,SW,225,9.2,10.4,71,0.00,OVC,,0.00,WeatherDisplay:10.37,2013-09-03 16:58:00,
2013-09-03 13:03:00,65.3,56.4,29.87,West,270,8.3,9.2,73,0.00,-RA,,0.00,WeatherDisplay:10.37,2013-09-03 17:03:00,
2013-09-03 13:08:00,64.9,56.8,29.87,West,270,8.5,9.9,75,0.00,-RA,,0.00,WeatherDisplay:10.37,2013-09-03 17:08:00,
2013-09-03 13:13:00,64.9,56.4,29.86,WSW,248,7.8,10.4,74,0.00,-RA,,0.00,WeatherDisplay:10.37,2013-09-03 17:13:00,
2013-09-03 13:18:00,64.6,56.1,29.86,West,270,10.1,13.8,74,0.00,-RA,,0.00,WeatherDisplay:10.37,2013-09-03 17:18:00,
2013-09-03 13:23:00,64.9,56.4,29.86,WSW,248,9.9,12.7,74,0.00,-RA,,0.00,WeatherDisplay:10.37,2013-09-03 17:23:00,
2013-09-03 13:28:00,64.9,56.4,29.86,WSW,248,9.9,10.4,74,0.00,-RA,,0.00,WeatherDisplay:10.37,2013-09-03 17:28:00,
2013-09-03 13:33:00,65.8,57.3,29.86,NW,315,5.6,5.8,74,0.00,-RA,,0.00,WeatherDisplay:10.37,2013-09-03 17:33:00,
2013-09-03 13:38:00,66.6,58.1,29.86,West,270,5.5,6.3,74,0.00,-RA,,0.00,WeatherDisplay:10.37,2013-09-03 17:38:00,
2013-09-03 13:43:00,66.4,57.9,29.86,WSW,248,6.7,9.2,74,0.00,-RA,,0.00,WeatherDisplay:10.37,2013-09-03 17:43:00,
2013-09-03 13:48:00,65.7,56.8,29.86,West,270,8.7,9.2,73,0.00,-RA,,0.00,WeatherDisplay:10.37,2013-09-03 17:48:00,
2013-09-03 13:53:00,65.8,56.5,29.86,WSW,248,6.9,9.2,72,0.00,OVC,,0.00,WeatherDisplay:10.37,2013-09-03 17:53:00,
2013-09-03 13:58:00,66.4,57.1,29.86,SW,225,8.6,10.4,72,0.00,OVC,,0.00,WeatherDisplay:10.37,2013-09-03 17:58:00,
2013-09-03 14:03:00,66.4,56.7,29.86,SSW,202,7.0,9.4,71,0.00,OVC,,0.00,WeatherDisplay:10.37,2013-09-03 18:03:00,
2013-09-03 14:08:00,66.4,56.7,29.86,West,270,4.6,5.8,71,0.00,OVC,,0.00,WeatherDisplay:10.37,2013-09-03 18:08:00,
2013-09-03 14:13:00,66.7,57.0,29.86,WNW,292,6.5,9.9,71,0.00,OVC,,0.00,WeatherDisplay:10.37,2013-09-03 18:13:00,
2013-09-03 14:18:00,66.6,56.5,29.86,SSW,202,7.6,9.2,70,0.00,OVC,,0.00,WeatherDisplay:10.37,2013-09-03 18:18:00,
2013-09-03 14:23:00,66.6,56.9,29.86,WNW,292,7.0,10.4,71,0.00,OVC,,0.00,WeatherDisplay:10.37,2013-09-03 18:23:00,
2013-09-03 14:28:00,66.7,56.6,29.86,West,270,5.6,5.8,70,0.00,OVC,,0.00,WeatherDisplay:10.37,2013-09-03 18:28:00,
2013-09-03 14:33:00,67.5,57.4,29.86,West,270,9.0,10.4,70,0.00,OVC,,0.00,WeatherDisplay:10.37,2013-09-03 18:33:00,
2013-09-03 14:38:00,67.1,57.4,29.86,NW,315,8.6,9.2,71,0.00,OVC,,0.00,WeatherDisplay:10.37,2013-09-03 18:38:00,
2013-09-03 14:43:00,67.1,57.4,29.86,West,270,6.4,8.1,71,0.00,OVC,,0.00,WeatherDisplay:10.37,2013-09-03 18:43:00,
2013-09-03 14:48:00,66.9,56.8,29.86,WSW,248,8.1,9.2,70,0.00,OVC,,0.00,WeatherDisplay:10.37,2013-09-03 18:48:00,
2013-09-03 14:53:00,66.9,56.8,29.86,WSW,248,8.6,9.2,70,0.00,OVC,,0.00,WeatherDisplay:10.37,2013-09-03 18:53:00,
2013-09-03 14:58:00,67.3,57.6,29.86,SW,225,4.8,8.1,71,0.00,OVC,,0.00,WeatherDisplay:10.37,2013-09-03 18:58:00,
2013-09-03 15:03:00,67.1,57.0,29.86,West,270,7.5,10.4,70,0.00,OVC,,0.00,WeatherDisplay:10.37,2013-09-03 19:03:00,
2013-09-03 15:08:00,67.3,57.2,29.86,West,270,8.1,10.4,70,0.00,OVC,,0.00,WeatherDisplay:10.37,2013-09-03 19:08:00,
2013-09-03 15:13:00,67.6,57.5,29.86,SSW,202,4.9,5.8,70,0.00,OVC,,0.00,WeatherDisplay:10.37,2013-09-03 19:13:00,
2013-09-03 15:18:00,67.5,57.8,29.86,WSW,248,5.3,6.9,71,0.00,OVC,,0.00,WeatherDisplay:10.37,2013-09-03 19:18:00,
2013-09-03 15:23:00,67.1,57.4,29.86,SW,225,6.1,6.9,71,0.00,OVC,,0.00,WeatherDisplay:10.37,2013-09-03 19:23:00,
2013-09-03 15:28:00,66.6,56.9,29.86,WNW,292,7.5,10.4,71,0.00,OVC,,0.00,WeatherDisplay:10.37,2013-09-03 19:28:00,
2013-09-03 15:33:00,66.9,57.2,29.86,West,270,7.7,9.2,71,0.00,OVC,,0.00,WeatherDisplay:10.37,2013-09-03 19:33:00,
2013-09-03 15:38:00,67.3,57.6,29.86,WSW,248,5.0,6.9,71,0.00,OVC,,0.00,WeatherDisplay:10.37,2013-09-03 19:38:00,
2013-09-03 15:43:00,67.5,57.4,29.86,WSW,248,6.8,8.8,70,0.00,OVC,,0.00,WeatherDisplay:10.37,2013-09-03 19:43:00,
2013-09-03 15:48:00,67.6,57.5,29.86,West,270,7.5,9.2,70,0.00,OVC,,0.00,WeatherDisplay:10.37,2013-09-03 19:48:00,
2013-09-03 15:53:00,67.6,57.5,29.86,WNW,292,8.0,8.0,70,0.00,OVC,,0.00,WeatherDisplay:10.37,2013-09-03 19:53:00,
2013-09-03 15:58:00,68.2,57.6,29.86,SSW,202,4.7,6.8,69,0.00,OVC,,0.00,WeatherDisplay:10.37,2013-09-03 19:58:00,
2013-09-03 16:03:00,68.5,57.9,29.87,WSW,248,4.7,5.8,69,0.00,OVC,,0.00,WeatherDisplay:10.37,2013-09-03 20:03:00,
2013-09-03 16:08:00,68.0,57.4,29.87,SSW,202,8.3,9.2,69,0.00,OVC,,0.00,WeatherDisplay:10.37,2013-09-03 20:08:00,
2013-09-03 16:13:00,68.0,57.4,29.87,West,270,4.2,4.6,69,0.00,BKN,,0.00,WeatherDisplay:10.37,2013-09-03 20:13:00,
2013-09-03 16:18:00,68.7,58.5,29.87,WSW,248,5.4,8.1,70,0.00,BKN,,0.00,WeatherDisplay:10.37,2013-09-03 20:18:00,
2013-09-03 16:23:00,69.8,57.9,29.87,West,270,6.4,8.1,66,0.00,BKN,,0.00,WeatherDisplay:10.37,2013-09-03 20:23:00,
2013-09-03 16:28:00,71.1,58.7,29.86,SW,225,6.8,9.2,65,0.00,BKN,,0.00,WeatherDisplay:10.37,2013-09-03 20:28:00,
2013-09-03 16:33:00,72.3,59.0,29.86,WSW,248,3.7,3.7,63,0.00,BKN,,0.00,WeatherDisplay:10.37,2013-09-03 20:33:00,
2013-09-03 16:38:00,70.7,57.5,29.87,SW,225,5.0,5.8,63,0.00,BKN,,0.00,WeatherDisplay:10.37,2013-09-03 20:38:00,
2013-09-03 16:43:00,69.8,57.5,29.87,SW,225,8.7,11.5,65,0.00,BKN,,0.00,WeatherDisplay:10.37,2013-09-03 20:43:00,
2013-09-03 16:48:00,68.9,57.1,29.87,WSW,248,8.5,11.5,66,0.00,BKN,,0.00,WeatherDisplay:10.37,2013-09-03 20:48:00,
2013-09-03 16:53:00,68.2,57.2,29.87,SW,225,7.2,7.2,68,0.00,BKN,,0.00,WeatherDisplay:10.37,2013-09-03 20:53:00,
2013-09-03 16:58:00,67.8,56.9,29.87,WSW,248,6.1,6.1,68,0.00,BKN,,0.00,WeatherDisplay:10.37,2013-09-03 20:58:00,
2013-09-03 17:03:00,67.5,57.0,29.87,West,270,6.7,6.7,69,0.00,BKN,,0.00,WeatherDisplay:10.37,2013-09-03 21:03:00,
2013-09-03 17:08:00,66.9,56.4,29.87,NNW,338,8.8,11.5,69,0.00,BKN,,0.00,WeatherDisplay:10.37,2013-09-03 21:08:00,
2013-09-03 17:13:00,66.7,56.6,29.87,West,270,4.6,5.8,70,0.00,OVC,,0.00,WeatherDisplay:10.37,2013-09-03 21:13:00,
2013-09-03 17:18:00,66.7,57.0,29.87,SW,225,4.6,5.8,71,0.00,OVC,,0.00,WeatherDisplay:10.37,2013-09-03 21:18:00,
2013-09-03 17:23:00,66.7,57.0,29.87,SSW,202,6.6,6.9,71,0.00,OVC,,0.00,WeatherDisplay:10.37,2013-09-03 21:23:00,
2013-09-03 17:28:00,66.6,56.9,29.87,SW,225,6.6,6.6,71,0.00,OVC,,0.00,WeatherDisplay:10.37,2013-09-03 21:28:00,
2013-09-03 17:33:00,66.6,56.9,29.87,West,270,7.1,12.4,71,0.00,OVC,,0.00,WeatherDisplay:10.37,2013-09-03 21:33:00,
2013-09-03 17:38:00,66.6,56.5,29.88,West,270,4.6,6.9,70,0.00,OVC,,0.00,WeatherDisplay:10.37,2013-09-03 21:38:00,
2013-09-03 17:43:00,66.6,56.9,29.88,SW,225,4.2,6.9,71,0.00,OVC,,0.00,WeatherDisplay:10.37,2013-09-03 21:43:00,
2013-09-03 17:48:00,66.7,57.0,29.88,West,270,6.0,6.9,71,0.00,OVC,,0.00,WeatherDisplay:10.37,2013-09-03 21:48:00,
2013-09-03 17:53:00,66.7,57.0,29.88,WNW,292,6.0,6.9,71,0.00,OVC,,0.00,WeatherDisplay:10.37,2013-09-03 21:53:00,
2013-09-03 17:58:00,66.7,57.0,29.88,WNW,292,4.5,4.6,71,0.00,OVC,,0.00,WeatherDisplay:10.37,2013-09-03 21:58:00,
2013-09-03 18:03:00,66.7,57.0,29.88,West,270,7.5,10.4,71,0.00,OVC,,0.00,WeatherDisplay:10.37,2013-09-03 22:03:00,
2013-09-03 18:08:00,66.6,56.9,29.88,SW,225,3.8,5.8,71,0.00,OVC,,0.00,WeatherDisplay:10.37,2013-09-03 22:08:00,
2013-09-03 18:13:00,66.6,56.9,29.88,West,270,5.5,6.8,71,0.00,OVC,,0.00,WeatherDisplay:10.37,2013-09-03 22:13:00,
2013-09-03 18:18:00,66.6,56.9,29.88,West,270,6.8,8.3,71,0.00,OVC,,0.00,WeatherDisplay:10.37,2013-09-03 22:18:00,
2013-09-03 18:23:00,66.4,56.7,29.88,WSW,248,7.3,8.1,71,0.00,OVC,,0.00,WeatherDisplay:10.37,2013-09-03 22:23:00,
2013-09-03 18:28:00,66.4,56.7,29.88,SW,225,5.3,9.2,71,0.00,OVC,,0.00,WeatherDisplay:10.37,2013-09-03 22:28:00,
2013-09-03 18:33:00,66.6,56.9,29.88,West,270,3.6,4.6,71,0.00,OVC,,0.00,WeatherDisplay:10.37,2013-09-03 22:33:00,
2013-09-03 18:38:00,66.6,56.9,29.89,NNE,22,3.9,4.7,71,0.00,OVC,,0.00,WeatherDisplay:10.37,2013-09-03 22:38:00,
2013-09-03 18:43:00,66.6,56.9,29.89,SE,135,2.9,4.6,71,0.00,OVC,,0.00,WeatherDisplay:10.37,2013-09-03 22:43:00,
2013-09-03 18:48:00,66.7,57.0,29.89,West,270,4.6,5.8,71,0.00,OVC,,0.00,WeatherDisplay:10.37,2013-09-03 22:48:00,
2013-09-03 18:53:00,66.7,57.0,29.88,WNW,292,4.9,4.9,71,0.00,OVC,,0.00,WeatherDisplay:10.37,2013-09-03 22:53:00,
2013-09-03 18:58:00,66.7,57.0,29.88,West,270,5.2,8.1,71,0.00,OVC,,0.00,WeatherDisplay:10.37,2013-09-03 22:58:00,
2013-09-03 19:03:00,66.9,56.8,29.88,WSW,248,5.3,5.3,70,0.00,OVC,,0.00,WeatherDisplay:10.37,2013-09-03 23:03:00,
2013-09-03 19:08:00,66.9,56.8,29.88,West,270,6.0,8.3,70,0.00,OVC,,0.00,WeatherDisplay:10.37,2013-09-03 23:08:00,
2013-09-03 19:13:00,66.9,56.8,29.89,West,270,4.7,5.8,70,0.00,BKN,,0.00,WeatherDisplay:10.37,2013-09-03 23:13:00,
2013-09-03 19:18:00,66.7,56.6,29.89,SW,225,5.5,6.9,70,0.00,BKN,,0.00,WeatherDisplay:10.37,2013-09-03 23:18:00,
2013-09-03 19:23:00,66.9,56.8,29.89,West,270,5.1,6.3,70,0.00,BKN,,0.00,WeatherDisplay:10.37,2013-09-03 23:23:00,
2013-09-03 19:28:00,66.9,56.8,29.89,WSW,248,5.2,5.8,70,0.00,BKN,,0.00,WeatherDisplay:10.37,2013-09-03 23:28:00,
2013-09-03 19:33:00,66.7,56.6,29.89,WSW,248,4.3,5.8,70,0.00,BKN,,0.00,WeatherDisplay:10.37,2013-09-03 23:33:00,
2013-09-03 19:38:00,66.6,56.5,29.89,WSW,248,4.6,5.8,70,0.00,BKN,,0.00,WeatherDisplay:10.37,2013-09-03 23:38:00,
2013-09-03 19:43:00,66.2,56.5,29.89,SW,225,5.8,5.8,71,0.00,BKN,,0.00,WeatherDisplay:10.37,2013-09-03 23:43:00,
2013-09-03 19:48:00,66.0,56.3,29.89,SW,225,4.8,5.8,71,0.00,BKN,,0.00,WeatherDisplay:10.37,2013-09-03 23:48:00,
2013-09-03 19:53:00,65.7,56.4,29.89,West,270,4.0,4.6,72,0.00,BKN,,0.00,WeatherDisplay:10.37,2013-09-03 23:53:00,
2013-09-03 19:58:00,65.3,56.4,29.89,SW,225,3.0,3.2,73,0.00,BKN,,0.00,WeatherDisplay:10.37,2013-09-03 23:58:00,
2013-09-03 20:03:00,65.1,56.2,29.90,SSW,202,3.2,3.7,73,0.00,BKN,,0.00,WeatherDisplay:10.37,2013-09-04 00:03:00,
2013-09-03 20:08:00,64.8,56.3,29.90,WSW,248,3.3,5.8,74,0.00,BKN,,0.00,WeatherDisplay:10.37,2013-09-04 00:08:00,
2013-09-03 20:13:00,64.6,56.1,29.90,SSW,202,4.6,7.3,74,0.00,SCT,,0.00,WeatherDisplay:10.37,2013-09-04 00:13:00,
2013-09-03 20:18:00,64.6,56.1,29.90,SSW,202,2.9,3.5,74,0.00,SCT,,0.00,WeatherDisplay:10.37,2013-09-04 00:18:00,
2013-09-03 20:23:00,64.6,56.1,29.90,West,270,3.9,4.6,74,0.00,SCT,,0.00,WeatherDisplay:10.37,2013-09-04 00:23:00,
2013-09-03 20:28:00,64.4,55.9,29.91,WSW,248,3.3,6.3,74,0.00,SCT,,0.00,WeatherDisplay:10.37,2013-09-04 00:28:00,
2013-09-03 20:33:00,64.2,55.7,29.91,WSW,248,3.2,3.5,74,0.00,SCT,,0.00,WeatherDisplay:10.37,2013-09-04 00:33:00,
2013-09-03 20:38:00,64.0,55.5,29.91,WSW,248,4.8,5.8,74,0.00,SCT,,0.00,WeatherDisplay:10.37,2013-09-04 00:38:00,
2013-09-03 20:43:00,64.0,55.5,29.91,SW,225,4.2,4.6,74,0.00,SCT,,0.00,WeatherDisplay:10.37,2013-09-04 00:43:00,
2013-09-03 20:48:00,63.9,55.4,29.91,West,270,2.5,3.5,74,0.00,SCT,,0.00,WeatherDisplay:10.37,2013-09-04 00:48:00,
2013-09-03 20:53:00,63.7,55.3,29.92,SW,225,2.8,3.5,74,0.00,SCT,,0.00,WeatherDisplay:10.37,2013-09-04 00:53:00,
2013-09-03 20:58:00,63.7,55.6,29.92,WSW,248,4.4,5.8,75,0.00,SCT,,0.00,WeatherDisplay:10.37,2013-09-04 00:58:00,
2013-09-03 21:03:00,63.7,55.3,29.92,SW,225,3.3,4.7,74,0.00,SCT,,0.00,WeatherDisplay:10.37,2013-09-04 01:03:00,
2013-09-03 21:08:00,63.7,55.3,29.92,SSW,202,3.2,5.8,74,0.00,SCT,,0.00,WeatherDisplay:10.37,2013-09-04 01:08:00,
2013-09-03 21:13:00,63.5,55.1,29.93,West,270,4.1,5.8,74,0.00,SCT,,0.00,WeatherDisplay:10.37,2013-09-04 01:13:00,
2013-09-03 21:18:00,63.5,55.1,29.93,West,270,3.4,5.3,74,0.00,SCT,,0.00,WeatherDisplay:10.37,2013-09-04 01:18:00,
2013-09-03 21:23:00,63.5,55.1,29.93,SW,225,4.2,5.8,74,0.00,SCT,,0.00,WeatherDisplay:10.37,2013-09-04 01:23:00,
2013-09-03 21:28:00,63.5,55.1,29.92,West,270,3.7,4.6,74,0.00,SCT,,0.00,WeatherDisplay:10.37,2013-09-04 01:28:00,
2013-09-03 21:33:00,63.3,54.9,29.92,West,270,3.6,3.7,74,0.00,SCT,,0.00,WeatherDisplay:10.37,2013-09-04 01:33:00,
2013-09-03 21:39:00,63.5,54.7,29.93,West,270,4.1,9.2,73,0.00,SCT,,0.00,WeatherDisplay:10.37,2013-09-04 01:39:00,
2013-09-03 21:44:00,63.7,54.9,29.93,SSW,202,4.4,5.8,73,0.00,SCT,,0.00,WeatherDisplay:10.37,2013-09-04 01:44:00,
2013-09-03 21:49:00,63.5,54.7,29.93,WSW,248,4.2,4.7,73,0.00,SCT,,0.00,WeatherDisplay:10.37,2013-09-04 01:49:00,
2013-09-03 21:54:00,63.5,54.7,29.93,WSW,248,3.7,6.9,73,0.00,SCT,,0.00,WeatherDisplay:10.37,2013-09-04 01:54:00,
2013-09-03 21:59:00,63.5,54.7,29.93,West,270,4.9,6.9,73,0.00,SCT,,0.00,WeatherDisplay:10.37,2013-09-04 01:59:00,
2013-09-03 22:04:00,63.3,54.5,29.93,WSW,248,4.0,4.6,73,0.00,SCT,,0.00,WeatherDisplay:10.37,2013-09-04 02:04:00,
2013-09-03 22:09:00,63.1,54.3,29.93,West,270,4.6,4.6,73,0.00,SCT,,0.00,WeatherDisplay:10.37,2013-09-04 02:09:00,
2013-09-03 22:14:00,63.1,54.3,29.94,WNW,292,5.5,6.9,73,0.00,SCT,,0.00,WeatherDisplay:10.37,2013-09-04 02:14:00,
2013-09-03 22:19:00,63.0,54.2,29.94,West,270,5.5,6.9,73,0.00,SCT,,0.00,WeatherDisplay:10.37,2013-09-04 02:19:00,
2013-09-03 22:24:00,63.0,54.2,29.94,West,270,4.1,6.3,73,0.00,SCT,,0.00,WeatherDisplay:10.37,2013-09-04 02:24:00,
2013-09-03 22:29:00,62.8,54.0,29.94,SW,225,2.9,3.5,73,0.00,SCT,,0.00,WeatherDisplay:10.37,2013-09-04 02:29:00,
2013-09-03 22:34:00,62.8,54.0,29.94,WSW,248,5.4,5.8,73,0.00,SCT,,0.00,WeatherDisplay:10.37,2013-09-04 02:34:00,
2013-09-03 22:39:00,62.8,54.0,29.94,WSW,248,4.7,5.8,73,0.00,SCT,,0.00,WeatherDisplay:10.37,2013-09-04 02:39:00,
2013-09-03 22:44:00,62.8,54.4,29.94,WSW,248,3.6,8.1,74,0.00,SCT,,0.00,WeatherDisplay:10.37,2013-09-04 02:44:00,
2013-09-03 22:49:00,62.4,54.0,29.94,SW,225,2.8,3.5,74,0.00,SCT,,0.00,WeatherDisplay:10.37,2013-09-04 02:49:00,
2013-09-03 22:54:00,62.2,54.2,29.95,West,270,2.4,3.5,75,0.00,SCT,,0.00,WeatherDisplay:10.37,2013-09-04 02:54:00,
2013-09-03 22:59:00,61.9,54.2,29.95,SW,225,3.4,3.4,76,0.00,SCT,,0.00,WeatherDisplay:10.37,2013-09-04 02:59:00,
2013-09-03 23:04:00,61.5,53.9,29.95,West,270,1.5,2.3,76,0.00,SCT,,0.00,WeatherDisplay:10.37,2013-09-04 03:04:00,
2013-09-03 23:09:00,61.2,53.9,29.95,SW,225,2.8,3.5,77,0.00,SCT,,0.00,WeatherDisplay:10.37,2013-09-04 03:09:00,
2013-09-03 23:14:00,60.8,53.5,29.95,WSW,248,2.1,2.3,77,0.00,FEW,,0.00,WeatherDisplay:10.37,2013-09-04 03:14:00,
2013-09-03 23:19:00,60.6,53.3,29.95,WSW,248,1.2,2.3,77,0.00,FEW,,0.00,WeatherDisplay:10.37,2013-09-04 03:19:00,
2013-09-03 23:24:00,60.4,53.5,29.95,WNW,292,2.0,2.3,78,0.00,FEW,,0.00,WeatherDisplay:10.37,2013-09-04 03:24:00,
2013-09-03 23:29:00,60.1,53.2,29.96,SW,225,1.6,2.3,78,0.00,FEW,,0.00,WeatherDisplay:10.37,2013-09-04 03:29:00,
2013-09-03 23:34:00,59.9,53.0,29.96,WNW,292,0.3,2.3,78,0.00,FEW,,0.00,WeatherDisplay:10.37,2013-09-04 03:34:00,
2013-09-03 23:39:00,59.4,52.9,29.96,SSW,202,2.2,2.2,79,0.00,FEW,,0.00,WeatherDisplay:10.37,2013-09-04 03:39:00,
2013-09-03 23:44:00,59.4,52.9,29.96,West,270,0.8,2.3,79,0.00,FEW,,0.00,WeatherDisplay:10.37,2013-09-04 03:44:00,
2013-09-03 23:49:00,59.2,52.7,29.96,WSW,248,0.0,0.0,79,0.00,FEW,,0.00,WeatherDisplay:10.37,2013-09-04 03:49:00,
2013-09-03 23:54:00,58.6,52.1,29.96,SW,225,0.0,0.0,79,0.00,FEW,,0.00,WeatherDisplay:10.37,2013-09-04 03:54:00,
2013-09-03 23:59:00,58.3,51.8,29.96,SW,225,0.0,1.1,79,0.00,FEW,,0.00,WeatherDisplay:10.37,2013-09-04 03:59:00,